Time;durP1;ratioP1;P1;durP2;ratioP2;P2;SDS_P1;SDS_P2;PMS_P1;PMS_P2;Temp;Humidity;BMP_temperature;BMP_pressure;BME280_temperature;BME280_humidity;BME280_pressure;Samples;Min_cycle;Max_cycle;Signal;HPM_P1;HPM_P2
2023/10/22 00:00:51;;;;;;;5.73;1.00;;;10.90;99.90;;;11.59;100.00;96911.31;5032330;28;20512;-81
2023/10/22 00:03:22;;;;;;;2.93;1.40;;;10.90;99.90;;;11.61;100.00;96904.81;5028598;28;20480;-81
2023/10/22 00:05:53;;;;;;;2.30;1.33;;;11.00;99.90;;;11.63;100.00;96908.00;5032825;28;20466;-81
2023/10/22 00:08:23;;;;;;;2.83;1.10;;;11.00;99.90;;;11.68;100.00;96914.41;5030263;28;20534;-81
2023/10/22 00:10:54;;;;;;;2.90;1.10;;;11.00;99.90;;;11.69;100.00;96910.78;5030874;28;20524;-81
2023/10/22 00:13:25;;;;;;;5.37;1.07;;;11.10;99.90;;;11.70;100.00;96918.41;5031918;28;20469;-81
2023/10/22 00:15:56;;;;;;;6.53;1.30;;;11.10;99.90;;;11.71;100.00;96924.47;5031368;28;20462;-81
2023/10/22 00:18:26;;;;;;;4.07;1.20;;;11.10;99.90;;;11.77;100.00;96928.81;5032037;28;20501;-81
2023/10/22 00:20:56;;;;;;;1.87;1.30;;;11.10;99.90;;;11.84;100.00;96921.66;5029544;28;20541;-81
2023/10/22 00:23:25;;;;;;;6.60;1.13;;;11.20;99.90;;;11.85;100.00;96929.31;5030464;28;20807;-81
2023/10/22 00:25:56;;;;;;;2.67;1.20;;;11.20;99.90;;;11.86;100.00;96937.97;5028240;28;20988;-81
2023/10/22 00:28:26;;;;;;;2.60;1.30;;;11.30;99.90;;;11.90;100.00;96933.91;5031940;28;20478;-81
2023/10/22 00:30:57;;;;;;;4.60;1.37;;;11.40;99.90;;;11.93;100.00;96936.06;5029325;28;20486;-81
2023/10/22 00:33:26;;;;;;;5.33;1.53;;;11.40;99.90;;;11.93;100.00;96933.44;5029513;28;20530;-81
2023/10/22 00:35:58;;;;;;;4.77;1.60;;;11.40;99.90;;;11.97;100.00;96935.41;5029116;28;20466;-81
2023/10/22 00:38:27;;;;;;;5.97;1.27;;;11.40;99.90;;;11.99;100.00;96937.78;5030599;28;21010;-81
2023/10/22 00:40:58;;;;;;;3.27;1.20;;;11.50;99.90;;;12.03;100.00;96945.00;5031047;28;20457;-81
2023/10/22 00:43:29;;;;;;;3.53;1.43;;;11.50;99.90;;;12.06;100.00;96943.75;5029299;28;20462;-81
2023/10/22 00:46:02;;;;;;;7.97;1.40;;;11.50;99.90;;;12.08;100.00;96946.91;5032107;28;20547;-81
2023/10/22 00:48:31;;;;;;;5.93;1.27;;;11.60;99.90;;;12.10;100.00;96952.75;5031729;28;20461;-82
2023/10/22 00:51:01;;;;;;;2.23;1.20;;;11.50;99.90;;;12.13;100.00;96946.25;5012724;28;20545;-82
2023/10/22 00:53:34;;;;;;;3.53;1.30;;;11.50;99.90;;;12.15;100.00;96950.25;5030869;28;20465;-81
2023/10/22 00:56:05;;;;;;;3.43;1.23;;;11.50;99.90;;;12.16;100.00;96948.44;5029730;28;20971;-81
2023/10/22 00:58:38;;;;;;;5.70;1.47;;;11.60;99.90;;;12.15;100.00;96947.63;5030232;28;20520;-81
2023/10/22 01:01:09;;;;;;;8.20;1.50;;;11.60;99.90;;;12.19;100.00;96956.66;5028797;28;20985;-81
2023/10/22 01:03:39;;;;;;;2.50;1.20;;;11.60;99.90;;;12.17;100.00;96956.09;5030277;28;20548;-82
2023/10/22 01:06:10;;;;;;;3.53;1.20;;;11.70;99.90;;;12.18;100.00;96949.81;5029754;28;20548;-81
2023/10/22 01:08:40;;;;;;;2.03;1.37;;;11.70;99.90;;;12.19;100.00;96961.09;5030190;28;20461;-81
2023/10/22 01:11:15;;;;;;;3.53;1.30;;;11.70;99.90;;;12.19;100.00;96954.03;5027280;28;20477;-82
2023/10/22 01:13:47;;;;;;;7.43;1.20;;;11.70;99.90;;;12.21;100.00;96952.00;5029113;28;20469;-81
2023/10/22 01:16:16;;;;;;;4.10;1.37;;;11.70;99.90;;;12.21;100.00;96952.00;5029481;28;20824;-81
2023/10/22 01:18:46;;;;;;;3.87;1.23;;;11.70;99.90;;;12.22;100.00;96953.56;5027705;28;20457;-81
2023/10/22 01:21:16;;;;;;;9.13;1.60;;;11.60;99.90;;;12.24;100.00;96950.75;5028614;28;20524;-81
2023/10/22 01:23:47;;;;;;;6.13;1.20;;;11.60;99.90;;;12.29;100.00;96963.97;5027202;28;21138;-81
2023/10/22 01:26:18;;;;;;;3.40;1.57;;;11.70;99.90;;;12.29;100.00;96964.75;5029513;28;20470;-81
2023/10/22 01:28:48;;;;;;;4.27;1.53;;;11.70;99.90;;;12.30;100.00;96961.13;5025372;28;20478;-81
2023/10/22 01:31:19;;;;;;;6.97;2.00;;;11.80;99.90;;;12.30;100.00;96960.31;5031274;28;20474;-81
2023/10/22 01:33:48;;;;;;;4.67;1.17;;;11.80;99.90;;;12.29;100.00;96959.53;5027958;28;20461;-81
2023/10/22 01:36:19;;;;;;;2.47;1.10;;;11.80;99.90;;;12.33;100.00;96957.25;5026454;28;20566;-81
2023/10/22 01:38:50;;;;;;;5.73;1.27;;;11.80;99.90;;;12.34;100.00;96953.63;5028583;28;21062;-82
2023/10/22 01:41:19;;;;;;;5.90;1.53;;;11.80;99.90;;;12.35;100.00;96963.88;5026491;28;20948;-81
2023/10/22 01:43:49;;;;;;;8.73;1.70;;;11.80;99.90;;;12.36;100.00;96959.41;5028561;28;20466;-81
2023/10/22 01:46:18;;;;;;;4.73;1.37;;;11.80;99.90;;;12.38;100.00;96952.94;5013115;28;20465;-81
2023/10/22 01:48:48;;;;;;;3.37;1.17;;;11.90;99.90;;;12.39;100.00;96956.38;5026227;28;20473;-81
2023/10/22 01:51:18;;;;;;;7.87;1.40;;;11.90;99.90;;;12.38;100.00;96963.44;5028703;28;20481;-81
2023/10/22 01:53:50;;;;;;;6.03;1.57;;;11.90;99.90;;;12.37;100.00;96953.97;5029170;28;20450;-81
2023/10/22 01:56:20;;;;;;;8.00;1.30;;;11.80;99.90;;;12.41;100.00;96957.75;5029885;28;20469;-81
2023/10/22 01:58:50;;;;;;;8.73;1.23;;;11.90;99.90;;;12.40;100.00;96961.38;5030109;28;20593;-81
2023/10/22 02:01:22;;;;;;;10.97;1.37;;;11.90;99.90;;;12.38;100.00;96966.06;5030420;28;20477;-81
2023/10/22 02:03:51;;;;;;;3.10;1.13;;;11.90;99.90;;;12.37;100.00;96961.81;5027307;28;20458;-81
2023/10/22 02:06:20;;;;;;;2.63;1.10;;;11.90;99.90;;;12.33;100.00;96972.97;5028881;28;20470;-81
2023/10/22 02:08:52;;;;;;;4.67;1.43;;;11.80;99.90;;;12.33;100.00;96968.53;5030275;28;20515;-81
2023/10/22 02:11:23;;;;;;;5.33;1.10;;;11.90;99.90;;;12.31;100.00;96970.59;5025633;28;20465;-81
2023/10/22 02:13:53;;;;;;;8.87;1.50;;;11.90;99.90;;;12.30;100.00;96971.63;5029266;28;20468;-81
2023/10/22 02:16:23;;;;;;;3.40;1.20;;;11.80;99.90;;;12.36;100.00;96968.09;5028503;28;20462;-81
2023/10/22 02:18:53;;;;;;;5.83;1.30;;;11.80;99.90;;;12.40;100.00;96976.31;5028772;28;20498;-82
2023/10/22 02:21:26;;;;;;;4.20;1.13;;;11.90;99.90;;;12.41;100.00;96983.16;5032201;28;20458;-81
2023/10/22 02:23:57;;;;;;;7.80;1.53;;;11.80;99.90;;;12.38;100.00;96981.78;5028879;28;20462;-81
2023/10/22 02:26:27;;;;;;;5.77;2.20;;;11.80;99.90;;;12.39;100.00;96979.97;5030887;28;20946;-81
2023/10/22 02:28:57;;;;;;;2.97;1.27;;;11.80;99.90;;;12.39;100.00;96988.59;5029329;28;20481;-82
2023/10/22 02:31:27;;;;;;;3.23;1.20;;;11.90;99.90;;;12.37;100.00;96990.66;5027830;28;20478;-81
2023/10/22 02:34:03;;;;;;;9.00;1.40;;;11.90;99.90;;;12.34;100.00;96991.13;5027725;28;20462;-82
2023/10/22 02:36:32;;;;;;;3.20;1.10;;;11.90;99.90;;;12.33;100.00;96988.72;5028703;28;20465;-81
2023/10/22 02:39:04;;;;;;;2.53;1.00;;;11.90;99.90;;;12.35;100.00;96997.16;5027252;28;21028;-82
2023/10/22 02:41:34;;;;;;;6.77;1.40;;;11.90;99.90;;;12.36;100.00;97006.59;5029456;28;20494;-82
2023/10/22 02:44:04;;;;;;;3.60;1.50;;;11.90;99.90;;;12.30;100.00;97008.31;5028472;28;20560;-82
2023/10/22 02:46:33;;;;;;;4.00;1.30;;;11.80;99.90;;;12.30;100.00;97005.69;5031351;28;20832;-82
2023/10/22 02:49:03;;;;;;;7.40;1.60;;;11.80;99.90;;;12.28;100.00;97012.19;5028494;28;20458;-82
2023/10/22 02:51:34;;;;;;;4.57;1.30;;;11.80;99.90;;;12.24;100.00;97011.84;5029153;28;20465;-81
2023/10/22 02:54:07;;;;;;;7.50;1.37;;;11.80;99.90;;;12.21;100.00;97008.84;5028885;28;20982;-82
2023/10/22 02:56:39;;;;;;;4.53;1.50;;;11.60;99.90;;;12.25;100.00;97016.03;5027976;28;20964;-81
2023/10/22 02:59:08;;;;;;;15.00;1.50;;;11.60;99.90;;;12.23;100.00;97018.09;5027805;28;20588;-81
2023/10/22 03:01:38;;;;;;;4.97;1.27;;;11.50;99.90;;;12.26;100.00;97017.63;5027881;28;20899;-81
2023/10/22 03:04:07;;;;;;;10.70;2.00;;;11.50;99.90;;;12.25;100.00;97017.88;5028120;28;20828;-81
2023/10/22 03:06:37;;;;;;;8.13;1.40;;;11.60;99.90;;;12.20;100.00;97023.78;5026832;28;21039;-82
2023/10/22 03:09:08;;;;;;;1.80;1.10;;;11.60;99.90;;;12.20;100.00;97013.28;5028462;28;20474;-82
2023/10/22 03:11:39;;;;;;;3.73;1.20;;;11.60;99.90;;;12.23;100.00;97017.28;5028176;28;20466;-81
2023/10/22 03:14:09;;;;;;;12.03;2.50;;;11.60;99.90;;;12.20;100.00;97018.53;5025484;28;20465;-81
2023/10/22 03:16:39;;;;;;;4.20;1.50;;;11.60;99.90;;;12.17;100.00;97021.59;5025723;28;20901;-81
2023/10/22 03:19:10;;;;;;;5.03;1.87;;;11.60;99.90;;;12.09;100.00;97032.38;5027323;28;20507;-81
2023/10/22 03:21:41;;;;;;;10.47;1.60;;;11.60;99.90;;;12.09;100.00;97021.91;5027228;28;20462;-82
2023/10/22 03:24:15;;;;;;;3.97;1.37;;;11.50;99.90;;;12.05;100.00;97037.25;5027554;28;20462;-82
2023/10/22 03:26:46;;;;;;;7.13;1.37;;;11.50;99.90;;;12.05;100.00;97033.84;5025639;28;20482;-82
2023/10/22 03:29:15;;;;;;;7.30;1.80;;;11.50;99.90;;;12.05;100.00;97045.13;5023641;28;20458;-81
2023/10/22 03:31:45;;;;;;;4.30;1.40;;;11.50;99.90;;;12.04;100.00;97040.91;5019501;28;20555;-81
2023/10/22 03:34:15;;;;;;;20.47;1.30;;;11.50;99.90;;;12.01;100.00;97043.97;5025924;28;20478;-81
2023/10/22 03:36:45;;;;;;;5.23;1.60;;;11.40;99.90;;;12.02;100.00;97057.88;5022667;28;20818;-81
2023/10/22 03:39:17;;;;;;;7.87;1.40;;;11.40;99.90;;;12.00;100.00;97055.50;5025611;28;20504;-82
2023/10/22 03:41:48;;;;;;;6.40;1.47;;;11.50;99.90;;;12.00;100.00;97059.91;5024307;28;20484;-81
2023/10/22 03:44:18;;;;;;;42.43;15.00;;;11.40;99.90;;;11.99;100.00;97066.16;5025284;28;20552;-79
2023/10/22 03:46:48;;;;;;;3.70;1.70;;;11.40;99.90;;;11.95;100.00;97062.38;5023705;28;21043;-81
2023/10/22 03:49:19;;;;;;;4.67;2.17;;;11.40;99.90;;;11.96;100.00;97074.47;5023837;28;20470;-81
2023/10/22 03:51:49;;;;;;;4.43;1.47;;;11.40;99.90;;;11.92;100.00;97068.06;5024174;28;21155;-80
2023/10/22 03:54:20;;;;;;;3.43;1.53;;;11.30;99.90;;;11.88;100.00;97075.56;5025872;28;20561;-81
2023/10/22 03:56:51;;;;;;;9.30;1.43;;;11.30;99.90;;;11.84;100.00;97077.00;5022509;28;20560;-81
2023/10/22 03:59:21;;;;;;;1.97;1.20;;;11.30;99.90;;;11.81;100.00;97071.41;5023159;28;20506;-81
2023/10/22 04:01:54;;;;;;;8.50;1.60;;;11.30;99.90;;;11.78;100.00;97088.38;5027849;28;20505;-80
2023/10/22 04:04:25;;;;;;;3.13;1.20;;;11.10;99.90;;;11.79;100.00;97086.56;5028168;28;21014;-81
2023/10/22 04:06:55;;;;;;;4.00;1.30;;;11.20;99.90;;;11.78;100.00;97098.03;5029508;28;20868;-80
2023/10/22 04:09:27;;;;;;;4.90;1.30;;;11.20;99.90;;;11.75;100.00;97095.88;5026925;28;20465;-81
2023/10/22 04:11:58;;;;;;;10.67;1.40;;;11.10;99.90;;;11.73;100.00;97090.06;5028687;28;20532;-81
2023/10/22 04:14:28;;;;;;;2.70;1.17;;;11.20;99.90;;;11.78;100.00;97098.03;5030133;28;20458;-81
2023/10/22 04:16:58;;;;;;;4.13;1.50;;;11.10;99.90;;;11.78;100.00;97093.63;5028656;28;22731;-81
2023/10/22 04:19:27;;;;;;;7.17;1.77;;;11.10;99.90;;;11.77;100.00;97091.19;5027114;28;20924;-81
2023/10/22 04:21:58;;;;;;;2.90;1.30;;;11.10;99.90;;;11.74;100.00;97104.72;5028058;28;21028;-81
2023/10/22 04:24:29;;;;;;;4.10;1.73;;;11.10;99.90;;;11.74;100.00;97108.16;5027777;28;20464;-78
2023/10/22 04:27:01;;;;;;;7.50;2.13;;;11.20;99.90;;;11.76;100.00;97106.13;5028747;28;20540;-81
2023/10/22 04:29:32;;;;;;;2.40;1.10;;;11.00;99.90;;;11.74;100.00;97104.72;5027515;28;20453;-82
2023/10/22 04:32:03;;;;;;;10.13;1.80;;;11.20;99.90;;;11.76;100.00;97108.75;5030703;28;20477;-81
2023/10/22 04:34:34;;;;;;;3.20;1.30;;;11.20;99.90;;;11.78;100.00;97098.03;5031286;28;20948;-81
2023/10/22 04:37:10;;;;;;;2.83;1.20;;;11.10;99.90;;;11.73;100.00;97106.53;5029365;28;21324;-81
2023/10/22 04:39:41;;;;;;;5.83;1.33;;;11.10;99.90;;;11.75;100.00;97106.34;5031416;28;20493;-82
2023/10/22 04:42:10;;;;;;;5.13;1.47;;;11.00;99.90;;;11.71;100.00;97108.59;5029788;28;20560;-82
2023/10/22 04:44:45;;;;;;;1.50;1.03;;;11.10;99.90;;;11.73;100.00;97111.00;5029316;28;20954;-81
2023/10/22 04:47:17;;;;;;;9.80;1.70;;;11.10;99.90;;;11.69;100.00;97115.84;5028398;28;21183;-81
2023/10/22 04:49:47;;;;;;;3.57;1.33;;;11.10;99.90;;;11.69;100.00;97109.81;5028896;28;20458;-81
2023/10/22 04:52:30;;;;;;;6.20;1.27;;;11.10;99.90;;;11.71;100.00;97120.88;5028475;28;20474;-81
2023/10/22 04:55:02;;;;;;;8.90;1.30;;;11.10;99.90;;;11.67;100.00;97122.28;5030776;28;20491;-81
2023/10/22 04:57:33;;;;;;;5.60;1.80;;;11.00;99.90;;;11.72;100.00;97119.88;5027014;28;20477;-80
2023/10/22 05:00:08;;;;;;;5.70;1.80;;;11.00;99.90;;;11.73;100.00;97124.09;5027236;28;20497;-80
2023/10/22 05:02:38;;;;;;;13.13;3.70;;;11.00;99.90;;;11.65;100.00;97119.91;5028001;28;20465;-81
2023/10/22 05:05:09;;;;;;;3.73;1.13;;;11.00;99.90;;;11.60;100.00;97120.56;5022408;28;20470;-82
2023/10/22 05:07:40;;;;;;;3.27;1.20;;;11.00;99.90;;;11.57;100.00;97128.03;5027859;28;20469;-81
2023/10/22 05:10:13;;;;;;;4.50;1.63;;;11.00;99.90;;;11.56;100.00;97129.84;5004836;28;20461;-81
2023/10/22 05:12:45;;;;;;;10.60;2.10;;;11.00;99.90;;;11.58;100.00;97125.22;5025908;28;20463;-81
2023/10/22 05:15:16;;;;;;;2.83;1.50;;;11.00;99.90;;;11.57;100.00;97130.66;5028093;28;20460;-81
2023/10/22 05:17:46;;;;;;;3.37;1.80;;;11.00;99.90;;;11.61;100.00;97129.22;5028329;28;20465;-81
2023/10/22 05:20:17;;;;;;;4.00;1.40;;;11.00;99.90;;;11.60;100.00;97125.78;5028226;28;20880;-81
2023/10/22 05:22:48;;;;;;;4.93;1.30;;;11.00;99.90;;;11.59;100.00;97126.78;5027160;28;20457;-80
2023/10/22 05:25:21;;;;;;;5.80;1.30;;;11.00;99.90;;;11.62;100.00;97141.28;5011245;28;20500;-81
2023/10/22 05:27:50;;;;;;;5.50;1.53;;;10.90;99.90;;;11.62;100.00;97151.78;5030131;28;20492;-81
2023/10/22 05:30:21;;;;;;;6.10;1.57;;;10.90;99.90;;;11.62;100.00;97151.78;5026318;28;20470;-81
2023/10/22 05:32:51;;;;;;;7.03;1.97;;;10.90;99.90;;;11.61;100.00;97150.97;5027736;28;20549;-81
2023/10/22 05:35:22;;;;;;;2.90;1.07;;;10.90;99.90;;;11.63;100.00;97155.19;5028698;28;20581;-79
2023/10/22 05:37:52;;;;;;;2.53;1.30;;;11.00;99.90;;;11.57;100.00;97160.25;5027622;28;20476;-81
2023/10/22 05:40:24;;;;;;;3.77;1.73;;;11.10;99.90;;;11.57;100.00;97159.47;5028503;28;20525;-79
2023/10/22 05:42:53;;;;;;;3.90;1.23;;;11.00;99.90;;;11.51;100.00;97166.38;5030215;28;20512;-81
2023/10/22 05:45:24;;;;;;;4.40;1.37;;;10.90;99.90;;;11.51;100.00;97166.38;5027145;28;20474;-81
2023/10/22 05:47:55;;;;;;;10.03;2.20;;;11.00;99.90;;;11.56;100.00;97169.13;5028484;28;20453;-81
2023/10/22 05:50:25;;;;;;;6.13;1.50;;;10.90;99.90;;;11.58;100.00;97174.16;5025321;28;20466;-80
2023/10/22 05:52:55;;;;;;;4.20;1.27;;;10.90;99.90;;;11.54;100.00;97165.94;5027557;28;20470;-81
2023/10/22 05:55:29;;;;;;;4.70;1.57;;;10.90;99.90;;;11.57;100.00;97170.75;5026544;28;20464;-81
2023/10/22 05:58:00;;;;;;;20.80;7.93;;;10.90;99.90;;;11.59;100.00;97181.78;5028473;28;20481;-79
2023/10/22 06:00:34;;;;;;;4.90;1.57;;;10.90;99.90;;;11.60;100.00;97180.78;5028169;28;20518;-81
2023/10/22 06:03:04;;;;;;;4.13;1.33;;;10.90;99.90;;;11.59;100.00;97184.41;5029825;28;20559;-79
2023/10/22 06:05:40;;;;;;;9.37;2.30;;;10.90;99.90;;;11.61;100.00;97185.00;5028539;28;20542;-79
2023/10/22 06:08:13;;;;;;;2.93;1.40;;;10.90;99.90;;;11.64;100.00;97186.38;5028834;28;20472;-79
2023/10/22 06:10:47;;;;;;;9.00;1.80;;;10.90;99.90;;;11.63;100.00;97188.19;5028634;28;20457;-79
2023/10/22 06:13:18;;;;;;;2.57;1.63;;;10.90;99.90;;;11.60;100.00;97193.88;5029010;28;20489;-79
2023/10/22 06:15:48;;;;;;;3.70;1.40;;;10.90;99.90;;;11.63;100.00;97197.09;5029354;28;20458;-79
2023/10/22 06:18:18;;;;;;;9.50;2.07;;;11.00;99.90;;;11.61;100.00;97199.91;5024529;28;20501;-80
2023/10/22 06:20:49;;;;;;;9.90;1.40;;;11.00;99.90;;;11.62;100.00;97206.75;5018141;28;20505;-81
2023/10/22 06:23:22;;;;;;;6.87;1.70;;;11.10;99.90;;;11.63;100.00;97208.34;5029730;28;20464;-80
2023/10/22 06:25:54;;;;;;;4.37;1.43;;;11.00;99.90;;;11.56;100.00;97216.25;5031017;28;20497;-79
2023/10/22 06:28:24;;;;;;;7.80;1.80;;;11.00;99.90;;;11.61;100.00;97219.03;5029418;28;20466;-80
2023/10/22 06:30:54;;;;;;;6.87;2.20;;;11.00;99.90;;;11.60;100.00;97221.88;5023688;28;20972;-79
2023/10/22 06:33:24;;;;;;;4.90;2.17;;;11.00;99.90;;;11.58;100.00;97223.91;5042368;28;20473;-79
2023/10/22 06:35:53;;;;;;;8.30;1.67;;;10.90;99.90;;;11.57;100.00;97238.81;5028189;28;20462;-80
2023/10/22 06:38:23;;;;;;;5.33;2.00;;;11.00;99.90;;;11.57;100.00;97233.56;5023366;28;20459;-81
2023/10/22 06:40:54;;;;;;;6.30;1.60;;;11.00;99.90;;;11.61;100.00;97233.94;5025475;28;20595;-82
2023/10/22 06:43:23;;;;;;;6.73;1.80;;;11.00;99.90;;;11.60;100.00;97238.38;5025571;28;20463;-82
2023/10/22 06:45:52;;;;;;;9.50;1.63;;;11.00;99.90;;;11.60;100.00;97251.47;5024253;28;20462;-81
2023/10/22 06:48:23;;;;;;;5.93;1.70;;;11.00;99.90;;;11.61;100.00;97249.66;5025400;28;21044;-81
2023/10/22 06:50:54;;;;;;;2.20;1.27;;;11.00;99.90;;;11.59;100.00;97256.94;5021977;28;20552;-82
2023/10/22 06:53:24;;;;;;;2.50;1.17;;;11.00;99.90;;;11.57;100.00;97262.38;5024733;28;20588;-81
2023/10/22 06:55:55;;;;;;;5.97;1.80;;;11.00;99.90;;;11.59;100.00;97262.97;5027711;28;20458;-81
2023/10/22 06:58:25;;;;;;;4.30;1.33;;;11.00;99.90;;;11.61;100.00;97260.94;5023255;28;20469;-81
2023/10/22 07:01:04;;;;;;;3.60;1.30;;;11.00;99.90;;;11.63;100.00;97269.38;5025296;28;21019;-80
2023/10/22 07:03:34;;;;;;;5.87;2.17;;;11.00;99.90;;;11.67;100.00;97266.34;5023753;28;20480;-81
2023/10/22 07:06:06;;;;;;;4.63;1.50;;;11.00;99.90;;;11.61;100.00;97271.41;5022424;28;20549;-82
2023/10/22 07:08:35;;;;;;;7.43;1.70;;;11.00;99.90;;;11.61;100.00;97268.00;5026907;28;20472;-81
2023/10/22 07:11:07;;;;;;;9.60;2.13;;;11.00;99.90;;;11.61;100.00;97276.66;5023841;28;20869;-78
2023/10/22 07:13:37;;;;;;;3.30;1.70;;;11.00;99.90;;;11.60;100.00;97269.81;5025890;28;20557;-81
2023/10/22 07:16:07;;;;;;;6.40;1.70;;;11.00;99.90;;;11.60;100.00;97275.03;5023267;28;20477;-81
2023/10/22 07:18:39;;;;;;;30.87;12.67;;;11.10;99.90;;;11.63;100.00;97267.78;5025678;28;20519;-81
2023/10/22 07:21:10;;;;;;;11.33;6.13;;;11.00;99.90;;;11.63;100.00;97278.28;5023182;28;20576;-80
2023/10/22 07:23:40;;;;;;;3.37;1.63;;;11.10;99.90;;;11.62;100.00;97272.22;5026274;28;20466;-81
2023/10/22 07:26:12;;;;;;;7.07;1.53;;;11.10;99.90;;;11.64;100.00;97275.41;5026009;28;20486;-80
2023/10/22 07:28:43;;;;;;;5.90;1.80;;;11.10;99.90;;;11.63;100.00;97267.78;5023910;28;20461;-81
2023/10/22 07:31:17;;;;;;;5.33;1.80;;;11.10;99.90;;;11.63;100.00;97277.25;5024032;28;20474;-81
2023/10/22 07:33:46;;;;;;;4.80;1.53;;;11.00;99.90;;;11.67;100.00;97280.22;5025571;28;20977;-81
2023/10/22 07:36:16;;;;;;;8.63;2.73;;;11.10;99.90;;;11.64;100.00;97283.28;5031419;28;20466;-80
2023/10/22 07:38:47;;;;;;;3.37;1.50;;;11.10;99.90;;;11.61;100.00;97292.38;5027564;28;20972;-80
2023/10/22 07:41:19;;;;;;;5.80;1.97;;;11.00;99.90;;;11.59;100.00;97297.00;5027775;28;20580;-80
2023/10/22 07:43:49;;;;;;;5.73;1.70;;;10.90;99.90;;;11.61;100.00;97292.38;5028734;28;20469;-80
2023/10/22 07:46:21;;;;;;;2.73;1.50;;;11.00;99.90;;;11.65;100.00;97291.94;5030591;28;20461;-80
2023/10/22 07:48:51;;;;;;;5.13;1.80;;;11.10;99.90;;;11.70;100.00;97299.97;5029480;28;20457;-80
2023/10/22 07:51:27;;;;;;;6.23;1.70;;;11.10;99.90;;;11.70;100.00;97299.97;5034374;28;20458;-80
2023/10/22 07:53:56;;;;;;;8.50;1.87;;;11.10;99.90;;;11.71;100.00;97291.94;5031113;28;20485;-80
2023/10/22 07:56:27;;;;;;;5.73;2.17;;;11.10;99.90;;;11.72;100.00;97297.97;5029644;28;21223;-80
2023/10/22 07:58:57;;;;;;;5.23;2.40;;;11.20;99.90;;;11.75;100.00;97303.59;5028469;28;20470;-80
2023/10/22 08:01:26;;;;;;;8.23;1.97;;;11.20;99.90;;;11.77;100.00;97308.59;5025427;28;20499;-80
2023/10/22 08:03:57;;;;;;;4.87;2.20;;;11.20;99.90;;;11.79;100.00;97312.63;5029579;28;20972;-80
2023/10/22 08:06:28;;;;;;;7.10;1.90;;;11.20;99.90;;;11.81;100.00;97307.16;5031355;28;20540;-81
2023/10/22 08:08:57;;;;;;;7.90;1.83;;;11.20;99.90;;;11.83;100.00;97310.38;5030835;28;20545;-81
2023/10/22 08:11:29;;;;;;;7.33;2.00;;;11.30;99.90;;;11.80;100.00;97310.81;5026802;28;20512;-82
2023/10/22 08:13:59;;;;;;;6.23;1.90;;;11.30;99.90;;;11.82;100.00;97308.78;5027184;28;20493;-81
2023/10/22 08:16:28;;;;;;;3.50;1.70;;;11.30;99.90;;;11.83;100.00;97316.44;5027432;28;20468;-81
2023/10/22 08:18:59;;;;;;;7.70;1.40;;;11.20;99.90;;;11.87;100.00;97311.56;5027977;28;20479;-81
2023/10/22 08:21:29;;;;;;;14.43;1.80;;;11.20;99.90;;;11.87;100.00;97312.34;5028684;28;21043;-80
2023/10/22 08:23:59;;;;;;;2.90;1.27;;;11.30;99.90;;;11.93;100.00;97310.72;5027366;28;20550;-81
2023/10/22 08:26:31;;;;;;;4.17;1.50;;;11.30;99.90;;;11.94;100.00;97312.31;5030078;28;20525;-81
2023/10/22 08:29:01;;;;;;;8.30;1.87;;;11.30;99.90;;;11.94;100.00;97320.19;5027564;28;20465;-81
2023/10/22 08:31:30;;;;;;;3.57;1.70;;;11.30;99.90;;;11.96;100.00;97320.75;5027479;28;20516;-80
2023/10/22 08:34:00;;;;;;;11.40;2.17;;;11.30;99.90;;;11.98;100.00;97329.19;5031637;28;20466;-81
2023/10/22 08:36:31;;;;;;;6.53;1.73;;;11.30;99.90;;;11.98;100.00;97321.34;5030381;28;20465;-81
2023/10/22 08:39:01;;;;;;;8.20;1.83;;;11.30;99.90;;;11.99;100.00;97325.56;5028628;28;20519;-81
2023/10/22 08:41:45;;;;;;;2.83;1.70;;;11.40;99.90;;;12.04;100.00;97331.00;5028372;28;21052;-81
2023/10/22 08:44:15;;;;;;;5.20;1.90;;;11.40;99.90;;;12.03;100.00;97327.56;5029703;28;20466;-81
2023/10/22 08:46:44;;;;;;;8.77;2.40;;;11.40;99.90;;;12.09;100.00;97325.88;5026849;28;20461;-81
2023/10/22 08:49:15;;;;;;;5.17;2.00;;;11.50;99.90;;;12.15;100.00;97329.50;5026908;28;20490;-81
2023/10/22 08:51:49;;;;;;;2.87;1.57;;;11.50;99.90;;;12.17;100.00;97328.25;5027768;28;20519;-81
2023/10/22 08:54:22;;;;;;;8.33;2.70;;;11.60;99.90;;;12.20;100.00;97332.25;5026539;28;20468;-81
2023/10/22 08:56:53;;;;;;;5.27;1.83;;;11.70;99.90;;;12.11;100.00;97334.34;5028369;28;20464;-81
2023/10/22 08:59:23;;;;;;;3.00;1.67;;;11.80;99.90;;;12.16;100.00;97338.94;5025633;28;20472;-80
2023/10/22 09:01:54;;;;;;;7.23;2.10;;;11.70;99.90;;;12.18;100.00;97342.97;5027849;28;20500;-80
2023/10/22 09:04:25;;;;;;;5.00;2.13;;;11.70;99.90;;;12.21;100.00;97354.84;5026908;28;20489;-80
2023/10/22 09:06:55;;;;;;;5.97;2.10;;;11.70;99.90;;;12.22;100.00;97357.22;5025998;28;20828;-79
2023/10/22 09:09:35;;;;;;;8.27;2.60;;;11.70;99.90;;;12.28;100.00;97361.63;5027031;28;20476;-79
2023/10/22 09:12:08;;;;;;;11.90;2.13;;;11.60;99.90;;;12.25;100.00;97367.28;5027223;28;20453;-79
2023/10/22 09:14:38;;;;;;;5.10;2.10;;;11.50;99.90;;;12.23;100.00;97368.53;5025767;28;20455;-79
2023/10/22 09:17:17;;;;;;;5.40;1.80;;;11.60;99.90;;;12.24;100.00;97378.00;5024824;28;21014;-79
2023/10/22 09:19:49;;;;;;;4.03;2.07;;;11.80;99.90;;;12.27;100.00;97375.75;5024607;28;20457;-79
2023/10/22 09:22:27;;;;;;;5.63;1.73;;;11.80;99.90;;;12.31;100.00;97382.19;5025493;28;20508;-79
2023/10/22 09:24:58;;;;;;;10.50;2.47;;;11.80;99.90;;;12.32;100.00;97381.13;5025609;28;20462;-81
2023/10/22 09:27:32;;;;;;;6.50;1.90;;;11.80;99.90;;;12.30;100.00;97388.44;5027635;28;20493;-80
2023/10/22 09:30:02;;;;;;;9.20;1.97;;;11.70;99.90;;;12.28;100.00;97393.09;5029321;28;20560;-80
2023/10/22 09:32:32;;;;;;;6.07;2.07;;;11.60;99.90;;;12.31;100.00;97392.66;5027992;28;20475;-79
2023/10/22 09:35:14;;;;;;;10.63;1.77;;;11.70;99.90;;;12.33;100.00;97395.88;5026150;28;20467;-79
2023/10/22 09:37:51;;;;;;;7.30;1.53;;;11.80;99.90;;;12.39;100.00;97399.47;5027555;28;20466;-79
2023/10/22 09:40:21;;;;;;;8.13;2.50;;;11.80;99.90;;;12.43;100.00;97405.88;5027818;28;20564;-79
2023/10/22 09:42:53;;;;;;;12.97;2.50;;;11.80;99.90;;;12.42;100.00;97405.09;5027952;28;20995;-79
2023/10/22 09:45:26;;;;;;;7.13;1.83;;;11.80;99.90;;;12.43;100.00;97409.28;5024501;28;20477;-80
2023/10/22 09:47:59;;;;;;;14.83;2.50;;;11.80;99.90;;;12.44;100.00;97410.91;5027747;28;20540;-80
2023/10/22 09:50:46;;;;;;;8.17;1.97;;;11.70;99.90;;;12.50;100.00;97404.78;5028451;28;20544;-80
2023/10/22 09:53:21;;;;;;;11.40;2.60;;;11.90;99.90;;;12.55;100.00;97410.22;5028767;28;20511;-80
2023/10/22 09:55:54;;;;;;;13.17;2.10;;;11.90;99.90;;;12.59;100.00;97418.47;5028583;28;20457;-79
2023/10/22 09:58:31;;;;;;;6.50;1.83;;;12.00;99.90;;;12.59;100.00;97413.22;5024015;28;21020;-80
2023/10/22 10:01:02;;;;;;;10.73;2.10;;;12.10;99.90;;;12.63;100.00;97418.84;5025074;28;20462;-80
2023/10/22 10:03:34;;;;;;;7.07;2.00;;;12.00;99.90;;;12.56;100.00;97419.66;5028636;28;20552;-80
2023/10/22 10:06:07;;;;;;;5.07;2.00;;;12.10;99.90;;;12.61;100.00;97419.84;5027720;28;20478;-79
2023/10/22 10:08:39;;;;;;;11.63;2.50;;;12.10;99.90;;;12.65;100.00;97419.41;5026242;28;21231;-80
2023/10/22 10:11:12;;;;;;;4.67;2.23;;;12.10;99.90;;;12.70;100.00;97424.81;5018277;28;20469;-79
2023/10/22 10:13:43;;;;;;;6.20;1.90;;;12.10;99.90;;;12.69;100.00;97420.59;5025572;28;20473;-81
2023/10/22 10:16:12;;;;;;;6.60;1.50;;;12.10;99.90;;;12.75;100.00;97424.97;5027698;28;20560;-81
2023/10/22 10:19:03;;;;;;;12.23;2.40;;;12.20;99.90;;;12.74;100.00;97423.38;5025751;28;20581;-80
2023/10/22 10:21:47;;;;;;;8.33;1.90;;;12.10;99.90;;;12.79;100.00;97431.38;5026379;28;20489;-80
2023/10/22 10:24:23;;;;;;;4.60;1.80;;;12.10;99.90;;;12.81;100.00;97424.91;5025970;28;20964;-80
2023/10/22 10:27:25;;;;;;;14.27;1.90;;;12.20;99.90;;;12.84;100.00;97439.44;5022658;28;20480;-80
2023/10/22 10:30:20;;;;;;;11.27;2.83;;;12.20;99.90;;;12.89;100.00;97431.69;5032057;28;20450;-81